Time;durP1;ratioP1;P1;durP2;ratioP2;P2;SDS_P1;SDS_P2;PMS_P1;PMS_P2;Temp;Humidity;BMP_temperature;BMP_pressure;BME280_temperature;BME280_humidity;BME280_pressure;Samples;Min_cycle;Max_cycle;Signal;HPM_P1;HPM_P2
2022/05/17 00:16:06;;;;;;;0.70;0.70;;;;;;;;;;5738331;23;20208;-87
2022/05/17 00:18:35;;;;;;;4.83;1.93;;;;;;;;;;6155865;23;20237;-87
2022/05/17 00:21:04;;;;;;;0.30;0.30;;;;;;;;;;6157093;23;20182;-87
2022/05/17 00:23:32;;;;;;;1.07;0.53;;;;;;;;;;6156868;23;20175;-87
2022/05/17 00:26:01;;;;;;;2.27;1.83;;;;;;;;;;6155856;23;20214;-87
2022/05/17 00:28:30;;;;;;;5.30;2.73;;;;;;;;;;6156070;23;20222;-87
2022/05/17 00:31:01;;;;;;;6.37;4.00;;;;;;;;;;6155194;23;20194;-87
2022/05/17 00:33:43;;;;;;;2.40;2.23;;;;;;;;;;6155271;23;20176;-87
2022/05/17 00:36:12;;;;;;;1.80;1.23;;;;;;;;;;6155655;23;20176;-87
2022/05/17 00:45:59;;;;;;;7.80;4.33;;;;;;;;;;6153409;23;20166;-87
2022/05/17 00:48:28;;;;;;;2.47;1.23;;;;;;;;;;6155166;23;20252;-87
2022/05/17 00:50:58;;;;;;;3.70;2.07;;;;;;;;;;6155097;23;20223;-88
2022/05/17 00:53:30;;;;;;;1.33;1.33;;;;;;;;;;6155107;23;20182;-87
2022/05/17 00:55:59;;;;;;;1.13;1.13;;;;;;;;;;6154952;23;20187;-87
2022/05/17 00:58:28;;;;;;;0.80;0.80;;;;;;;;;;6156642;23;20199;-87
2022/05/17 01:01:02;;;;;;;6.50;2.73;;;;;;;;;;6158016;23;20191;-87
2022/05/17 01:03:32;;;;;;;4.03;1.77;;;;;;;;;;6156186;23;20203;-86
2022/05/17 01:06:02;;;;;;;5.53;2.13;;;;;;;;;;6157082;23;20259;-87
2022/05/17 01:08:31;;;;;;;3.10;2.37;;;;;;;;;;6163292;23;20177;-88
2022/05/17 01:10:59;;;;;;;4.00;3.47;;;;;;;;;;6164279;23;20171;-87
2022/05/17 01:16:14;;;;;;;1.83;1.73;;;;;;;;;;6155889;23;20226;-87
2022/05/17 01:18:43;;;;;;;2.07;1.53;;;;;;;;;;6154977;23;20226;-87
2022/05/17 01:21:13;;;;;;;0.60;0.60;;;;;;;;;;6155137;23;20183;-87
2022/05/17 01:23:42;;;;;;;5.73;2.40;;;;;;;;;;6155089;23;20180;-87
2022/05/17 01:26:13;;;;;;;4.33;2.13;;;;;;;;;;6155109;23;20189;-87
2022/05/17 01:28:47;;;;;;;8.03;2.53;;;;;;;;;;6154903;23;20175;-87
2022/05/17 01:31:19;;;;;;;2.90;1.30;;;;;;;;;;6154611;23;20195;-87
2022/05/17 01:33:48;;;;;;;0.90;0.90;;;;;;;;;;6154593;23;20184;-87
2022/05/17 01:36:21;;;;;;;3.10;2.03;;;;;;;;;;6155479;23;20176;-87
2022/05/17 01:38:51;;;;;;;3.60;2.43;;;;;;;;;;6156617;23;20210;-87
2022/05/17 01:41:20;;;;;;;1.50;1.40;;;;;;;;;;6154768;23;20187;-87
2022/05/17 01:43:50;;;;;;;1.47;1.37;;;;;;;;;;6154513;23;20281;-87
2022/05/17 01:46:19;;;;;;;0.90;0.90;;;;;;;;;;6155627;23;20195;-87
2022/05/17 01:48:49;;;;;;;0.70;0.70;;;;;;;;;;6154821;23;20176;-87
2022/05/17 01:51:36;;;;;;;1.50;0.87;;;;;;;;;;6154260;23;20282;-87
2022/05/17 01:54:04;;;;;;;3.80;1.40;;;;;;;;;;6154675;23;20186;-87
2022/05/17 01:56:36;;;;;;;3.00;1.43;;;;;;;;;;6155934;23;20172;-87
2022/05/17 01:59:04;;;;;;;1.20;1.10;;;;;;;;;;6155975;23;20170;-87
2022/05/17 02:01:33;;;;;;;1.43;1.07;;;;;;;;;;6154048;23;20174;-87
2022/05/17 02:04:01;;;;;;;2.67;1.07;;;;;;;;;;6154599;23;20253;-87
2022/05/17 02:06:30;;;;;;;0.70;0.70;;;;;;;;;;6154679;23;20186;-87
2022/05/17 02:09:00;;;;;;;1.27;1.23;;;;;;;;;;6154364;23;20191;-87
2022/05/17 02:11:28;;;;;;;1.53;1.23;;;;;;;;;;6154431;23;20190;-87
2022/05/17 02:13:57;;;;;;;0.70;0.70;;;;;;;;;;6155489;23;20187;-87
2022/05/17 02:16:28;;;;;;;1.93;1.47;;;;;;;;;;6154180;23;20269;-87
2022/05/17 02:18:57;;;;;;;2.77;1.93;;;;;;;;;;6154175;23;20188;-87
2022/05/17 02:21:25;;;;;;;0.40;0.40;;;;;;;;;;6154270;23;20254;-87
2022/05/17 02:23:56;;;;;;;6.20;1.27;;;;;;;;;;6154341;23;20181;-87
2022/05/17 02:26:36;;;;;;;0.77;0.77;;;;;;;;;;6154731;23;20178;-87
2022/05/17 02:29:12;;;;;;;0.60;0.60;;;;;;;;;;6155824;23;20182;-87
2022/05/17 02:31:41;;;;;;;0.93;0.93;;;;;;;;;;6154879;23;20184;-87
2022/05/17 02:34:09;;;;;;;7.33;1.40;;;;;;;;;;6154156;23;20176;-87
2022/05/17 02:36:38;;;;;;;0.53;0.53;;;;;;;;;;6154813;23;20185;-87
2022/05/17 02:39:06;;;;;;;5.40;1.90;;;;;;;;;;6154765;23;20222;-87
2022/05/17 02:41:36;;;;;;;0.30;0.30;;;;;;;;;;6155339;23;20182;-86
2022/05/17 02:44:04;;;;;;;0.47;0.47;;;;;;;;;;6155344;23;20214;-86
2022/05/17 02:46:34;;;;;;;1.80;1.70;;;;;;;;;;6156471;23;20175;-87
2022/05/17 02:49:04;;;;;;;0.50;0.50;;;;;;;;;;6156063;23;20178;-86
2022/05/17 02:51:34;;;;;;;1.50;1.40;;;;;;;;;;6157302;23;20180;-87
2022/05/17 02:54:05;;;;;;;0.57;0.57;;;;;;;;;;6156622;23;20275;-87
2022/05/17 02:56:34;;;;;;;0.43;0.43;;;;;;;;;;6156689;23;20176;-87
2022/05/17 02:59:04;;;;;;;1.10;1.10;;;;;;;;;;6156671;23;20214;-87
2022/05/17 03:01:32;;;;;;;1.70;1.60;;;;;;;;;;6156945;23;20258;-87
2022/05/17 03:04:05;;;;;;;1.13;1.13;;;;;;;;;;6156762;23;20201;-86
2022/05/17 03:06:34;;;;;;;1.37;1.27;;;;;;;;;;6158041;23;20195;-87
2022/05/17 03:09:02;;;;;;;0.80;0.80;;;;;;;;;;6156614;23;20182;-87
2022/05/17 03:11:42;;;;;;;0.40;0.40;;;;;;;;;;6156926;23;20179;-86
2022/05/17 03:14:12;;;;;;;9.17;2.80;;;;;;;;;;6156694;23;20250;-87
2022/05/17 03:16:41;;;;;;;9.57;3.23;;;;;;;;;;6156309;23;20286;-86
2022/05/17 03:19:10;;;;;;;2.20;1.40;;;;;;;;;;6156707;23;20190;-87
2022/05/17 03:21:43;;;;;;;1.10;1.10;;;;;;;;;;6156583;23;20185;-87
2022/05/17 03:24:12;;;;;;;5.07;2.17;;;;;;;;;;6156513;23;20209;-87
2022/05/17 03:27:04;;;;;;;0.40;0.40;;;;;;;;;;6156461;23;20239;-86
2022/05/17 03:29:37;;;;;;;2.00;0.80;;;;;;;;;;6156912;23;20195;-86
2022/05/17 03:32:06;;;;;;;3.37;2.43;;;;;;;;;;6156439;23;20205;-87
2022/05/17 03:34:35;;;;;;;10.60;5.53;;;;;;;;;;6157678;23;20194;-87
2022/05/17 03:37:03;;;;;;;5.80;2.73;;;;;;;;;;6156941;23;20180;-87
2022/05/17 03:39:31;;;;;;;0.40;0.40;;;;;;;;;;6158380;23;20171;-86
2022/05/17 03:42:03;;;;;;;0.73;0.73;;;;;;;;;;6158071;23;20189;-86
2022/05/17 03:44:33;;;;;;;3.20;1.17;;;;;;;;;;6156663;23;20230;-86
2022/05/17 03:47:01;;;;;;;3.43;2.20;;;;;;;;;;6156958;23;20179;-86
2022/05/17 03:49:30;;;;;;;1.17;0.97;;;;;;;;;;6158092;23;20198;-87
2022/05/17 03:51:58;;;;;;;0.40;0.40;;;;;;;;;;6159579;23;20209;-87
2022/05/17 03:54:27;;;;;;;3.33;3.23;;;;;;;;;;6159036;23;20187;-87
2022/05/17 03:56:55;;;;;;;0.47;0.47;;;;;;;;;;6157587;23;20187;-87
2022/05/17 03:59:24;;;;;;;1.37;1.07;;;;;;;;;;6158094;23;20179;-87
2022/05/17 04:01:53;;;;;;;7.37;1.33;;;;;;;;;;6157366;23;20183;-86
2022/05/17 04:04:22;;;;;;;3.67;1.50;;;;;;;;;;6159489;23;20187;-86
2022/05/17 04:06:50;;;;;;;2.23;2.10;;;;;;;;;;6156556;23;20183;-87
2022/05/17 04:09:19;;;;;;;0.47;0.47;;;;;;;;;;6156459;23;20186;-86
2022/05/17 04:11:47;;;;;;;1.23;1.00;;;;;;;;;;6156325;23;20239;-87
2022/05/17 04:14:19;;;;;;;0.73;0.60;;;;;;;;;;6156483;23;20195;-87
2022/05/17 04:16:47;;;;;;;0.67;0.67;;;;;;;;;;6156087;23;20291;-87
2022/05/17 04:19:23;;;;;;;5.60;1.17;;;;;;;;;;6156576;23;20184;-86
2022/05/17 04:21:58;;;;;;;2.77;2.57;;;;;;;;;;6156016;23;20250;-86
2022/05/17 04:24:34;;;;;;;7.93;3.17;;;;;;;;;;6156165;23;20183;-86
2022/05/17 04:27:05;;;;;;;2.40;0.90;;;;;;;;;;6156573;23;20186;-86
2022/05/17 04:29:38;;;;;;;3.27;1.43;;;;;;;;;;6155863;23;20179;-85
2022/05/17 04:32:11;;;;;;;3.53;1.43;;;;;;;;;;6156661;23;20174;-85
2022/05/17 04:34:43;;;;;;;3.63;2.77;;;;;;;;;;6155408;23;20286;-85
2022/05/17 04:37:12;;;;;;;5.47;3.23;;;;;;;;;;6153678;23;20273;-85
2022/05/17 04:39:40;;;;;;;4.27;2.13;;;;;;;;;;6155194;23;20200;-84
2022/05/17 04:42:11;;;;;;;0.70;0.70;;;;;;;;;;6155078;23;20262;-85
2022/05/17 04:44:42;;;;;;;3.30;1.53;;;;;;;;;;6155587;23;20244;-85
2022/05/17 04:47:15;;;;;;;3.37;2.67;;;;;;;;;;6155247;23;20176;-85
2022/05/17 04:49:47;;;;;;;7.40;2.20;;;;;;;;;;6153992;23;20176;-85
2022/05/17 04:52:23;;;;;;;2.10;1.13;;;;;;;;;;6156609;23;20172;-85
2022/05/17 04:54:52;;;;;;;2.43;1.53;;;;;;;;;;6154619;23;20207;-85
2022/05/17 04:57:21;;;;;;;1.17;1.07;;;;;;;;;;6156570;23;20234;-85
2022/05/17 04:59:59;;;;;;;0.70;0.70;;;;;;;;;;6154986;23;20180;-85
2022/05/17 05:02:34;;;;;;;1.07;0.70;;;;;;;;;;6155245;23;20175;-85
2022/05/17 05:05:04;;;;;;;1.80;1.37;;;;;;;;;;6156478;23;20198;-86
2022/05/17 05:07:36;;;;;;;0.90;0.90;;;;;;;;;;6155014;23;20175;-87
2022/05/17 05:10:09;;;;;;;0.50;0.50;;;;;;;;;;6155806;23;20226;-87
2022/05/17 05:12:42;;;;;;;0.73;0.73;;;;;;;;;;6156047;23;20187;-87
2022/05/17 05:15:11;;;;;;;4.13;1.53;;;;;;;;;;6155956;23;20250;-87
2022/05/17 05:17:40;;;;;;;3.23;1.27;;;;;;;;;;6155967;23;20275;-87
2022/05/17 05:20:11;;;;;;;5.83;2.00;;;;;;;;;;6156261;23;20222;-87
2022/05/17 05:22:40;;;;;;;3.50;1.73;;;;;;;;;;6154610;23;20180;-87
2022/05/17 05:25:12;;;;;;;0.50;0.50;;;;;;;;;;6156351;23;20179;-87
2022/05/17 05:27:46;;;;;;;3.20;2.83;;;;;;;;;;6157859;23;20177;-87
2022/05/17 05:30:18;;;;;;;1.30;1.00;;;;;;;;;;6155938;23;20175;-87
2022/05/17 05:32:52;;;;;;;3.63;1.20;;;;;;;;;;6158549;23;20171;-87
2022/05/17 05:35:22;;;;;;;0.50;0.50;;;;;;;;;;6156471;23;20193;-87
2022/05/17 05:37:57;;;;;;;5.20;1.67;;;;;;;;;;6156532;23;20175;-87
2022/05/17 05:40:26;;;;;;;4.70;1.03;;;;;;;;;;6156087;23;20183;-85
2022/05/17 05:42:56;;;;;;;1.70;1.27;;;;;;;;;;6155585;23;20208;-85
2022/05/17 05:45:25;;;;;;;0.60;0.60;;;;;;;;;;6155309;23;20552;-86
2022/05/17 05:47:56;;;;;;;0.60;0.60;;;;;;;;;;6154856;23;20185;-85
2022/05/17 05:50:26;;;;;;;0.53;0.53;;;;;;;;;;6156190;23;20179;-85
2022/05/17 05:53:00;;;;;;;1.50;1.50;;;;;;;;;;6154431;23;20182;-85
2022/05/17 05:55:29;;;;;;;4.17;2.13;;;;;;;;;;6155836;23;20191;-85
2022/05/17 05:57:57;;;;;;;1.23;1.20;;;;;;;;;;6154531;23;20278;-85
2022/05/17 06:00:26;;;;;;;2.43;1.50;;;;;;;;;;6154929;23;20202;-84
2022/05/17 06:02:55;;;;;;;0.70;0.70;;;;;;;;;;6154327;23;20357;-84
2022/05/17 06:05:24;;;;;;;5.53;1.53;;;;;;;;;;6155689;23;20181;-84
2022/05/17 06:07:54;;;;;;;3.53;1.97;;;;;;;;;;6154290;23;20184;-84
2022/05/17 06:10:23;;;;;;;3.33;1.80;;;;;;;;;;6154683;23;20183;-83
2022/05/17 06:12:52;;;;;;;0.83;0.83;;;;;;;;;;6154683;23;20177;-84
2022/05/17 06:15:20;;;;;;;5.90;2.17;;;;;;;;;;6154357;23;20212;-84
2022/05/17 06:17:50;;;;;;;2.10;1.17;;;;;;;;;;6154576;23;20228;-84
2022/05/17 06:20:19;;;;;;;9.73;2.00;;;;;;;;;;6155939;23;20168;-83
2022/05/17 06:22:47;;;;;;;1.17;1.07;;;;;;;;;;6155204;23;20236;-84
2022/05/17 06:25:17;;;;;;;3.37;1.97;;;;;;;;;;6156525;23;20199;-84
2022/05/17 06:27:46;;;;;;;3.23;1.17;;;;;;;;;;6156688;23;20186;-84
2022/05/17 06:30:15;;;;;;;0.63;0.63;;;;;;;;;;6157555;23;20172;-83
2022/05/17 06:32:44;;;;;;;1.50;1.07;;;;;;;;;;6157864;23;20174;-83
2022/05/17 06:35:13;;;;;;;4.23;2.10;;;;;;;;;;6156373;23;20203;-84
2022/05/17 06:37:42;;;;;;;1.10;1.00;;;;;;;;;;6156202;23;20186;-84
2022/05/17 06:40:11;;;;;;;3.03;1.13;;;;;;;;;;6156266;23;20195;-83
2022/05/17 06:42:41;;;;;;;0.57;0.57;;;;;;;;;;6157731;23;20260;-84
2022/05/17 06:45:11;;;;;;;7.23;1.50;;;;;;;;;;6156800;23;20177;-84
2022/05/17 06:47:40;;;;;;;6.93;5.23;;;;;;;;;;6156428;23;20234;-84
2022/05/17 06:50:09;;;;;;;2.03;1.90;;;;;;;;;;6156522;23;20241;-84
2022/05/17 06:52:37;;;;;;;0.97;0.93;;;;;;;;;;6156191;23;20177;-83
2022/05/17 06:55:23;;;;;;;;;;;;;;;;;;;;;
2022/05/17 06:59:29;;;;;;;1.30;1.30;;;;;;;;;;6156415;23;20264;-84
2022/05/17 07:18:38;;;;;;;1.90;1.70;;;;;;;;;;6064314;23;20186;-83
2022/05/17 07:44:11;;;;;;;0.30;0.30;;;;;;;;;;6012428;23;20270;-82
2022/05/17 08:03:36;;;;;;;1.50;0.90;;;;;;;;;;5762332;24;20205;-83
2022/05/17 08:39:58;;;;;;;;;;;;;;;;;;;;;
2022/05/17 08:43:17;;;;;;;0.40;0.40;;;;;;;;;;5898887;24;20186;-83
2022/05/17 08:55:55;;;;;;;2.03;0.60;;;;;;;;;;6103573;23;20204;-82
2022/05/17 09:02:43;;;;;;;1.00;0.97;;;;;;;;;;6127215;23;20179;-83
2022/05/17 09:09:05;;;;;;;2.10;0.90;;;;;;;;;;6010817;23;20179;-82
2022/05/17 09:12:48;;;;;;;0.30;0.30;;;;;;;;;;5978332;24;20186;-83
2022/05/17 09:15:31;;;;;;;0.33;0.33;;;;;;;;;;6034625;23;20207;-83
2022/05/17 09:21:53;;;;;;;;;;;;;;;;;;;;;
2022/05/17 09:25:09;;;;;;;0.30;0.30;;;;;;;;;;6031125;23;20191;-83
2022/05/17 09:28:08;;;;;;;0.30;0.30;;;;;;;;;;6128534;23;20185;-83
2022/05/17 09:31:31;;;;;;;0.30;0.30;;;;;;;;;;6126240;23;20182;-81
2022/05/17 09:34:41;;;;;;;7.00;1.33;;;;;;;;;;6127594;23;20184;-82
2022/05/17 09:37:25;;;;;;;2.33;1.30;;;;;;;;;;6128540;23;20183;-82
2022/05/17 10:03:41;;;;;;;0.50;0.50;;;;;;;;;;6110446;23;20230;-83
2022/05/17 10:07:50;;;;;;;0.97;0.97;;;;;;;;;;6007169;23;20265;-84
2022/05/17 10:11:06;;;;;;;10.53;1.50;;;;;;;;;;6154608;23;20302;-82
2022/05/17 10:14:20;;;;;;;;;;;;;;;;;;;;;
2022/05/17 10:18:13;;;;;;;0.30;0.30;;;;;;;;;;6126949;23;20187;-83
2022/05/17 10:33:32;;;;;;;2.53;2.10;;;;;;;;;;5892831;24;20193;-83
2022/05/17 10:40:43;;;;;;;2.93;2.23;;;;;;;;;;5825685;24;20198;-83
2022/05/17 10:47:27;;;;;;;1.60;0.73;;;;;;;;;;5812313;24;20229;-83
2022/05/17 10:57:26;;;;;;;0.80;0.67;;;;;;;;;;5785925;24;20183;-83
2022/05/17 11:01:11;;;;;;;;;;;;;;;;;;;;;
2022/05/17 11:04:17;;;;;;;8.50;2.47;;;;;;;;;;5953602;24;20245;-82
2022/05/17 11:11:06;;;;;;;;;;;;;;;;;;;;;
2022/05/17 11:14:17;;;;;;;1.33;1.00;;;;;;;;;;6063224;23;20264;-82
2022/05/17 11:24:05;;;;;;;5.57;1.47;;;;;;;;;;6101273;23;20187;-82
2022/05/17 11:27:06;;;;;;;5.97;1.60;;;;;;;;;;6129609;23;20197;-82
2022/05/17 11:29:51;;;;;;;4.60;2.27;;;;;;;;;;6128385;23;20182;-84
2022/05/17 11:32:33;;;;;;;4.47;1.43;;;;;;;;;;6130606;23;20266;-83
2022/05/17 11:35:29;;;;;;;2.43;1.27;;;;;;;;;;6129287;23;20195;-83
2022/05/17 11:38:18;;;;;;;1.80;1.70;;;;;;;;;;6154218;23;20177;-83
2022/05/17 11:41:07;;;;;;;;;;;;;;;;;;;;;
2022/05/17 11:43:46;;;;;;;5.57;3.57;;;;;;;;;;6155125;23;20261;-84
2022/05/17 11:46:38;;;;;;;4.40;2.00;;;;;;;;;;6130185;23;20200;-83
2022/05/17 11:49:46;;;;;;;0.67;0.67;;;;;;;;;;6128722;23;20182;-83
2022/05/17 11:52:33;;;;;;;0.83;0.83;;;;;;;;;;6128134;23;20208;-84
2022/05/17 11:55:21;;;;;;;4.17;3.70;;;;;;;;;;6117997;23;20189;-81
2022/05/17 12:01:26;;;;;;;1.63;1.33;;;;;;;;;;6117751;23;20262;-83
2022/05/17 12:04:14;;;;;;;1.53;1.43;;;;;;;;;;6127933;23;20198;-83
2022/05/17 12:07:10;;;;;;;4.47;3.40;;;;;;;;;;6128036;23;20199;-82
2022/05/17 12:09:52;;;;;;;12.53;3.70;;;;;;;;;;6127878;23;20237;-82
2022/05/17 12:12:43;;;;;;;4.27;2.87;;;;;;;;;;6130121;23;20209;-82
2022/05/17 12:15:43;;;;;;;2.10;2.00;;;;;;;;;;6128098;23;20249;-83
2022/05/17 12:18:37;;;;;;;4.60;3.20;;;;;;;;;;6128646;23;20212;-84
2022/05/17 12:25:20;;;;;;;3.37;2.33;;;;;;;;;;6116234;23;20187;-83
2022/05/17 12:36:10;;;;;;;;;;;;;;;;;;;;;
2022/05/17 12:53:49;;;;;;;3.40;3.10;;;;;;;;;;5820087;24;20190;-88
2022/05/17 13:00:28;;;;;;;;;;;;;;;;;;;;;
2022/05/17 13:07:15;;;;;;;6.43;3.13;;;;;;;;;;6006310;23;20201;-86
2022/05/17 13:10:07;;;;;;;2.37;2.27;;;;;;;;;;6166710;23;20181;-86
2022/05/17 13:13:30;;;;;;;;;;;;;;;;;;;;;
2022/05/17 13:23:32;;;;;;;10.10;3.03;;;;;;;;;;5956612;23;20210;-86
2022/05/17 13:26:10;;;;;;;7.30;3.40;;;;;;;;;;6069581;23;20182;-85
2022/05/17 13:28:56;;;;;;;4.67;1.63;;;;;;;;;;6067722;23;20170;-83
2022/05/17 13:31:37;;;;;;;3.43;3.13;;;;;;;;;;6067868;23;20191;-85
2022/05/17 13:34:30;;;;;;;2.90;2.70;;;;;;;;;;6066759;23;20254;-83
2022/05/17 13:37:29;;;;;;;4.80;2.87;;;;;;;;;;6065848;23;20204;-82
2022/05/17 13:40:25;;;;;;;8.43;3.03;;;;;;;;;;6066204;23;20235;-83
2022/05/17 13:43:43;;;;;;;4.87;3.30;;;;;;;;;;6090114;23;20374;-84
2022/05/17 13:49:58;;;;;;;5.73;3.47;;;;;;;;;;6090880;23;20182;-84
2022/05/17 13:52:43;;;;;;;3.43;3.03;;;;;;;;;;6152607;23;20179;-83
2022/05/17 13:55:30;;;;;;;3.40;2.00;;;;;;;;;;6150822;23;20187;-82
2022/05/17 13:58:03;;;;;;;9.50;3.57;;;;;;;;;;6149139;23;20285;-85
2022/05/17 14:00:58;;;;;;;1.03;1.03;;;;;;;;;;6149611;23;20178;-82
2022/05/17 14:03:42;;;;;;;5.77;3.20;;;;;;;;;;6149499;23;20261;-83
2022/05/17 14:06:47;;;;;;;3.97;3.57;;;;;;;;;;6147391;23;20330;-83
2022/05/17 14:50:30;;;;;;;4.33;3.73;;;;;;;;;;5795258;23;20276;-86
2022/05/17 15:28:54;;;;;;;;;;;;;;;;;;;;;
2022/05/17 15:31:30;;;;;;;4.90;4.50;;;;;;;;;;6124076;23;20185;-88
2022/05/17 15:33:59;;;;;;;10.53;5.70;;;;;;;;;;6126504;23;20260;-87
2022/05/17 15:36:29;;;;;;;6.50;3.97;;;;;;;;;;6124482;23;20187;-87
2022/05/17 15:42:01;;;;;;;5.40;4.87;;;;;;;;;;6125481;23;20181;-86
2022/05/17 15:44:41;;;;;;;9.23;5.30;;;;;;;;;;6127095;23;20184;-86
2022/05/17 15:55:31;;;;;;;4.10;2.97;;;;;;;;;;6130743;23;20187;-87
2022/05/17 15:57:59;;;;;;;6.27;3.20;;;;;;;;;;6127249;23;20208;-87
2022/05/17 16:00:29;;;;;;;9.57;4.57;;;;;;;;;;6124891;23;20176;-87
2022/05/17 16:02:58;;;;;;;2.60;1.67;;;;;;;;;;6124758;23;20180;-87
2022/05/17 16:05:26;;;;;;;8.60;3.90;;;;;;;;;;6127524;23;20179;-87
2022/05/17 16:08:08;;;;;;;7.13;3.60;;;;;;;;;;6126895;23;20192;-86
2022/05/17 16:10:38;;;;;;;4.97;2.90;;;;;;;;;;6128208;23;20238;-87
2022/05/17 16:13:09;;;;;;;8.37;3.33;;;;;;;;;;6128621;23;20235;-86
2022/05/17 16:15:42;;;;;;;3.77;1.93;;;;;;;;;;6156256;23;20169;-86
2022/05/17 16:18:12;;;;;;;5.37;4.23;;;;;;;;;;6128288;23;20174;-86
2022/05/17 16:20:41;;;;;;;4.33;2.97;;;;;;;;;;6128307;23;20187;-86
2022/05/17 16:23:10;;;;;;;2.80;2.53;;;;;;;;;;6127670;23;20267;-86
2022/05/17 16:25:39;;;;;;;8.13;3.30;;;;;;;;;;6128605;23;20262;-86
2022/05/17 16:28:11;;;;;;;4.93;2.60;;;;;;;;;;6127685;23;20211;-86
2022/05/17 16:30:42;;;;;;;2.37;1.53;;;;;;;;;;6129615;23;20210;-86
2022/05/17 16:33:14;;;;;;;7.50;2.97;;;;;;;;;;6129949;23;20191;-86
2022/05/17 16:35:50;;;;;;;6.27;3.43;;;;;;;;;;6126539;23;20175;-86
2022/05/17 16:38:27;;;;;;;3.17;1.40;;;;;;;;;;6128801;23;20179;-86
2022/05/17 16:41:00;;;;;;;1.00;1.00;;;;;;;;;;6128432;23;20191;-86
2022/05/17 16:43:34;;;;;;;5.17;2.60;;;;;;;;;;6128460;23;20232;-86
2022/05/17 16:46:11;;;;;;;1.20;1.10;;;;;;;;;;6125940;23;20183;-86
2022/05/17 16:48:44;;;;;;;7.63;2.87;;;;;;;;;;6128983;23;20226;-86
2022/05/17 16:51:14;;;;;;;2.40;2.20;;;;;;;;;;6128944;23;20206;-86
2022/05/17 16:54:04;;;;;;;4.27;2.53;;;;;;;;;;6128475;23;20184;-86
2022/05/17 16:56:33;;;;;;;2.07;1.80;;;;;;;;;;6126436;23;20179;-87
2022/05/17 16:59:02;;;;;;;2.23;0.97;;;;;;;;;;6127341;23;20176;-86
2022/05/17 17:01:32;;;;;;;2.57;2.37;;;;;;;;;;6128954;23;20179;-86
2022/05/17 17:04:01;;;;;;;1.83;1.50;;;;;;;;;;6130211;23;20199;-87
2022/05/17 17:06:33;;;;;;;2.67;2.00;;;;;;;;;;6129921;23;20199;-86
2022/05/17 17:09:01;;;;;;;1.57;1.27;;;;;;;;;;6129670;23;20246;-86
2022/05/17 17:11:30;;;;;;;5.63;3.23;;;;;;;;;;6128857;23;20266;-86
2022/05/17 17:14:03;;;;;;;3.77;2.50;;;;;;;;;;6130721;23;20175;-87
2022/05/17 17:16:33;;;;;;;4.07;2.83;;;;;;;;;;6131471;23;20215;-87
2022/05/17 17:19:02;;;;;;;1.70;1.17;;;;;;;;;;6161638;23;20192;-88
2022/05/17 17:21:31;;;;;;;9.60;1.80;;;;;;;;;;6132124;23;20178;-85
2022/05/17 17:23:59;;;;;;;0.97;0.97;;;;;;;;;;6130561;23;20189;-86
2022/05/17 17:26:29;;;;;;;2.57;1.03;;;;;;;;;;6130511;23;20240;-86
2022/05/17 17:28:57;;;;;;;3.97;2.53;;;;;;;;;;6129597;23;20214;-86
2022/05/17 17:31:27;;;;;;;3.13;2.10;;;;;;;;;;6156008;23;20176;-86
2022/05/17 17:39:28;;;;;;;3.00;1.73;;;;;;;;;;6130485;23;20184;-86
2022/05/17 17:41:57;;;;;;;2.80;2.30;;;;;;;;;;6130219;23;20204;-86
2022/05/17 17:44:28;;;;;;;2.77;1.63;;;;;;;;;;6129271;23;20180;-86
2022/05/17 17:46:57;;;;;;;2.10;1.47;;;;;;;;;;6130374;23;20183;-86
2022/05/17 17:49:27;;;;;;;8.53;2.13;;;;;;;;;;6130560;23;20197;-86
2022/05/17 17:51:56;;;;;;;0.90;0.90;;;;;;;;;;6156304;23;20193;-86
2022/05/17 17:54:24;;;;;;;1.03;0.97;;;;;;;;;;6130291;23;20177;-86
2022/05/17 17:56:53;;;;;;;2.60;2.13;;;;;;;;;;6129989;23;20179;-86
2022/05/17 17:59:21;;;;;;;3.10;2.43;;;;;;;;;;6130220;23;20184;-86
2022/05/17 18:01:50;;;;;;;2.10;1.70;;;;;;;;;;6156119;23;20212;-86
2022/05/17 18:04:19;;;;;;;1.77;1.67;;;;;;;;;;6130031;23;20211;-86
2022/05/17 18:06:49;;;;;;;6.40;2.50;;;;;;;;;;6156342;23;20168;-86
2022/05/17 18:09:17;;;;;;;3.67;1.80;;;;;;;;;;6129684;23;20200;-86
2022/05/17 18:11:46;;;;;;;4.43;1.60;;;;;;;;;;6129500;23;20268;-86
2022/05/17 18:14:15;;;;;;;4.43;2.83;;;;;;;;;;6130219;23;20216;-86
2022/05/17 18:16:47;;;;;;;5.40;2.27;;;;;;;;;;6130317;23;20205;-86
2022/05/17 18:19:16;;;;;;;2.77;1.83;;;;;;;;;;6129642;23;20203;-86
2022/05/17 18:21:44;;;;;;;5.97;3.00;;;;;;;;;;6130648;23;20181;-86
2022/05/17 18:24:14;;;;;;;4.77;2.23;;;;;;;;;;6130507;23;20240;-86
2022/05/17 18:26:44;;;;;;;2.87;2.57;;;;;;;;;;6130079;23;20293;-86
2022/05/17 18:29:18;;;;;;;5.40;2.97;;;;;;;;;;6129632;23;20211;-86
2022/05/17 18:31:47;;;;;;;2.70;1.70;;;;;;;;;;6129277;23;20189;-86
2022/05/17 18:34:49;;;;;;;3.90;1.83;;;;;;;;;;6129922;23;20178;-86
2022/05/17 18:37:06;;;;;;;5.83;2.77;;;;;;;;;;6129601;23;20184;-86
2022/05/17 18:39:36;;;;;;;1.70;1.60;;;;;;;;;;6129829;23;20177;-85
2022/05/17 18:42:05;;;;;;;3.67;2.33;;;;;;;;;;6130237;23;20183;-85
2022/05/17 18:44:33;;;;;;;4.70;1.37;;;;;;;;;;6130239;23;20176;-86
2022/05/17 18:47:03;;;;;;;4.00;2.17;;;;;;;;;;6130056;23;20182;-86
2022/05/17 18:49:33;;;;;;;3.73;1.53;;;;;;;;;;6155849;23;20198;-86
2022/05/17 18:52:02;;;;;;;4.30;2.20;;;;;;;;;;6130162;23;20181;-86
2022/05/17 18:54:31;;;;;;;2.70;1.90;;;;;;;;;;6130322;23;20180;-86
2022/05/17 18:57:01;;;;;;;5.57;1.37;;;;;;;;;;6155125;23;20179;-86
2022/05/17 18:59:31;;;;;;;1.60;1.50;;;;;;;;;;6130031;23;20183;-86
2022/05/17 19:01:59;;;;;;;6.40;2.20;;;;;;;;;;6129689;23;20203;-86
2022/05/17 19:04:28;;;;;;;1.63;1.53;;;;;;;;;;6129682;23;20214;-86
2022/05/17 19:06:57;;;;;;;5.13;2.43;;;;;;;;;;6129378;23;20206;-86
2022/05/17 19:14:58;;;;;;;19.70;3.20;;;;;;;;;;6130546;23;20182;-86
2022/05/17 19:17:27;;;;;;;4.67;2.20;;;;;;;;;;6129614;23;20184;-86
2022/05/17 19:19:55;;;;;;;0.87;0.87;;;;;;;;;;6128865;23;20178;-86
2022/05/17 19:22:26;;;;;;;1.23;1.07;;;;;;;;;;6130413;23;20187;-86
2022/05/17 19:24:55;;;;;;;2.17;1.33;;;;;;;;;;6155769;23;20175;-86
2022/05/17 19:27:26;;;;;;;1.87;1.70;;;;;;;;;;6130224;23;20186;-86
2022/05/17 19:29:55;;;;;;;1.53;1.17;;;;;;;;;;6129984;23;20202;-86
2022/05/17 19:32:25;;;;;;;0.63;0.63;;;;;;;;;;6131170;23;20290;-86
2022/05/17 19:34:55;;;;;;;4.00;3.17;;;;;;;;;;6131302;23;20189;-86
2022/05/17 19:40:11;;;;;;;1.80;1.57;;;;;;;;;;6156976;23;20252;-86
2022/05/17 19:42:41;;;;;;;3.70;1.80;;;;;;;;;;6131934;23;20182;-85
2022/05/17 19:45:11;;;;;;;1.20;1.17;;;;;;;;;;6131690;23;20174;-86
2022/05/17 19:47:44;;;;;;;2.20;2.10;;;;;;;;;;6131526;23;20205;-86
2022/05/17 19:50:13;;;;;;;2.40;2.07;;;;;;;;;;6131475;23;20280;-86
2022/05/17 19:52:41;;;;;;;1.63;1.57;;;;;;;;;;6131693;23;20177;-86
2022/05/17 19:55:10;;;;;;;2.37;2.23;;;;;;;;;;6157338;23;20177;-86
2022/05/17 19:57:39;;;;;;;1.27;0.93;;;;;;;;;;6131516;23;20186;-86
2022/05/17 20:00:09;;;;;;;0.63;0.63;;;;;;;;;;6157463;23;20174;-86
2022/05/17 20:02:38;;;;;;;1.13;1.13;;;;;;;;;;6157080;23;20187;-86
2022/05/17 20:05:07;;;;;;;0.30;0.30;;;;;;;;;;6131799;23;20200;-86
2022/05/17 20:07:36;;;;;;;3.17;2.17;;;;;;;;;;6131601;23;20213;-85
2022/05/17 20:10:06;;;;;;;1.87;1.47;;;;;;;;;;6131173;23;20204;-86
2022/05/17 20:12:34;;;;;;;2.10;1.90;;;;;;;;;;6131713;23;20180;-85
2022/05/17 20:15:03;;;;;;;1.70;1.60;;;;;;;;;;6157250;23;20176;-86
2022/05/17 20:17:33;;;;;;;7.27;2.63;;;;;;;;;;6156821;23;20291;-86
2022/05/17 20:20:02;;;;;;;1.83;1.40;;;;;;;;;;6131957;23;20180;-86
2022/05/17 20:22:30;;;;;;;2.63;2.43;;;;;;;;;;6157161;23;20187;-86
2022/05/17 20:25:01;;;;;;;0.90;0.90;;;;;;;;;;6131172;23;20182;-86
2022/05/17 20:27:30;;;;;;;3.33;2.33;;;;;;;;;;6131077;23;20182;-86
2022/05/17 20:29:58;;;;;;;2.90;2.37;;;;;;;;;;6102004;23;20264;-86
2022/05/17 20:32:27;;;;;;;15.60;2.43;;;;;;;;;;6127166;23;20254;-86
2022/05/17 20:34:56;;;;;;;3.70;3.00;;;;;;;;;;6101931;23;20181;-86
2022/05/17 20:37:25;;;;;;;3.13;2.80;;;;;;;;;;6101064;23;20181;-86
2022/05/17 20:39:53;;;;;;;2.73;1.10;;;;;;;;;;6127751;23;20179;-86
2022/05/17 20:42:22;;;;;;;4.70;1.03;;;;;;;;;;6101911;23;20189;-86
2022/05/17 20:44:50;;;;;;;2.30;2.07;;;;;;;;;;6127713;23;20176;-86
2022/05/17 20:50:06;;;;;;;1.03;1.03;;;;;;;;;;6101762;23;20192;-86
2022/05/17 20:52:35;;;;;;;4.87;2.73;;;;;;;;;;6100748;23;20185;-86
2022/05/17 20:55:03;;;;;;;5.10;2.77;;;;;;;;;;6101827;23;20174;-86
2022/05/17 20:57:32;;;;;;;4.00;3.53;;;;;;;;;;6127494;23;20262;-86
2022/05/17 21:00:01;;;;;;;4.20;3.80;;;;;;;;;;6126361;23;20199;-86
2022/05/17 21:02:29;;;;;;;6.13;4.23;;;;;;;;;;6101801;23;20179;-86
2022/05/17 21:04:58;;;;;;;6.27;3.93;;;;;;;;;;6126897;23;20196;-86
2022/05/17 21:07:31;;;;;;;4.87;1.73;;;;;;;;;;6127413;23;20204;-86
2022/05/17 21:10:00;;;;;;;2.60;2.00;;;;;;;;;;6101773;23;20193;-86
2022/05/17 21:12:29;;;;;;;3.07;1.70;;;;;;;;;;6102004;23;20179;-86
2022/05/17 21:14:57;;;;;;;1.43;1.33;;;;;;;;;;6101415;23;20175;-86
2022/05/17 21:17:26;;;;;;;3.27;1.57;;;;;;;;;;6101662;23;20189;-86
2022/05/17 21:19:56;;;;;;;2.27;2.07;;;;;;;;;;6101673;23;20213;-86
2022/05/17 21:22:25;;;;;;;7.73;2.87;;;;;;;;;;6101644;23;20174;-86
2022/05/17 21:24:55;;;;;;;3.00;2.60;;;;;;;;;;6101362;23;20188;-85
2022/05/17 21:27:25;;;;;;;8.47;1.67;;;;;;;;;;6127204;23;20209;-86
2022/05/17 21:29:53;;;;;;;3.63;1.53;;;;;;;;;;6124648;23;20218;-86
2022/05/17 21:32:22;;;;;;;1.33;1.23;;;;;;;;;;6125683;23;20184;-86
2022/05/17 21:34:54;;;;;;;9.10;2.97;;;;;;;;;;6127343;23;20171;-86